Time;durP1;ratioP1;P1;durP2;ratioP2;P2;SDS_P1;SDS_P2;PMS_P1;PMS_P2;Temp;Humidity;BMP_temperature;BMP_pressure;BME280_temperature;BME280_humidity;BME280_pressure;Samples;Min_cycle;Max_cycle;Signal;HPM_P1;HPM_P2
2022/06/01 00:02:41;;;;;;;0.77;0.60;;;12.00;99.90;;;;;;10284261;28;20394;-86
2022/06/01 00:07:43;;;;;;;3.92;0.75;;;12.00;99.90;;;;;;10301005;28;20141;-86
2022/06/01 00:12:45;;;;;;;3.17;0.55;;;11.90;99.90;;;;;;10286796;28;20058;-86
2022/06/01 00:17:47;;;;;;;1.42;0.50;;;11.90;99.90;;;;;;10291953;28;20045;-87
2022/06/01 00:22:49;;;;;;;1.98;1.02;;;11.90;99.90;;;;;;10283998;28;20069;-86
2022/06/01 00:27:51;;;;;;;3.45;0.50;;;11.90;99.90;;;;;;10291937;28;20065;-87
2022/06/01 00:32:53;;;;;;;3.15;0.68;;;11.70;99.90;;;;;;10297936;28;20053;-86
2022/06/01 00:37:55;;;;;;;2.78;0.60;;;11.70;99.90;;;;;;10304029;28;20042;-86
2022/06/01 00:43:00;;;;;;;1.13;0.60;;;11.60;99.90;;;;;;10308355;28;20043;-86
2022/06/01 00:48:02;;;;;;;4.30;0.70;;;11.50;99.90;;;;;;10312617;28;20093;-86
2022/06/01 00:53:27;;;;;;;0.95;0.50;;;11.50;99.90;;;;;;10298790;28;20062;-86
2022/06/01 00:58:33;;;;;;;1.95;0.60;;;11.60;99.90;;;;;;10291918;28;20125;-86
2022/06/01 01:03:39;;;;;;;0.90;0.50;;;11.70;99.90;;;;;;10307034;28;20054;-86
2022/06/01 01:08:43;;;;;;;0.97;0.63;;;11.80;99.90;;;;;;10294912;28;20043;-86
2022/06/01 01:13:48;;;;;;;2.92;0.75;;;11.70;99.90;;;;;;10292025;28;20050;-86
2022/06/01 01:18:51;;;;;;;5.07;0.82;;;11.80;99.90;;;;;;10303668;28;20042;-86
2022/06/01 01:23:59;;;;;;;4.00;0.70;;;11.70;99.90;;;;;;10292896;28;20045;-86
2022/06/01 01:29:09;;;;;;;1.13;0.60;;;11.60;99.90;;;;;;10268245;28;20059;-86
2022/06/01 01:34:11;;;;;;;2.40;0.73;;;11.60;99.90;;;;;;10254015;28;20053;-87
2022/06/01 01:39:15;;;;;;;2.45;1.10;;;11.60;99.90;;;;;;10271969;28;20054;-87
2022/06/01 01:44:25;;;;;;;1.85;1.15;;;11.60;99.90;;;;;;10265864;28;20043;-87
2022/06/01 01:49:34;;;;;;;2.03;1.00;;;11.50;99.90;;;;;;10280074;28;20346;-87
2022/06/01 01:55:09;;;;;;;3.55;1.13;;;11.40;99.90;;;;;;10268336;28;20410;-86
2022/06/01 02:00:36;;;;;;;1.98;0.98;;;11.30;99.90;;;;;;10252470;28;20055;-86
2022/06/01 02:06:24;;;;;;;2.78;1.27;;;11.10;99.90;;;;;;10266456;28;20133;-86
2022/06/01 02:17:01;;;;;;;3.53;1.15;;;10.90;99.90;;;;;;10274908;28;19945;-86
2022/06/01 02:22:04;;;;;;;3.50;1.02;;;10.80;99.90;;;;;;10264293;28;20067;-86
2022/06/01 02:27:07;;;;;;;2.75;1.17;;;10.70;99.90;;;;;;10267260;28;20065;-86
2022/06/01 02:32:10;;;;;;;2.90;1.27;;;10.60;99.90;;;;;;10292056;28;20057;-86
2022/06/01 02:37:15;;;;;;;1.70;0.93;;;10.30;99.90;;;;;;10307281;28;20133;-86
2022/06/01 02:42:28;;;;;;;4.30;1.27;;;10.20;99.90;;;;;;10288218;28;20121;-86
2022/06/01 02:47:32;;;;;;;2.83;1.10;;;10.10;99.90;;;;;;10287074;28;20049;-87
2022/06/01 02:52:34;;;;;;;3.83;1.20;;;10.00;99.90;;;;;;10306831;28;20444;-86
2022/06/01 02:57:37;;;;;;;4.05;1.20;;;10.00;99.90;;;;;;10291438;28;20047;-86
2022/06/01 03:02:40;;;;;;;3.33;1.35;;;10.10;99.90;;;;;;10269637;28;20053;-85
2022/06/01 03:07:42;;;;;;;4.25;1.40;;;10.10;99.90;;;;;;10289816;28;20516;-85
2022/06/01 03:12:44;;;;;;;2.67;1.42;;;9.90;99.90;;;;;;10300929;28;20046;-85
2022/06/01 03:17:46;;;;;;;2.60;1.45;;;9.90;99.90;;;;;;10289786;28;20085;-85
2022/06/01 03:22:48;;;;;;;7.68;1.50;;;9.90;99.90;;;;;;10304987;28;20062;-87
2022/06/01 03:27:51;;;;;;;3.63;1.40;;;9.90;99.90;;;;;;10295659;28;20050;-87
2022/06/01 03:32:53;;;;;;;4.32;1.33;;;9.90;99.90;;;;;;10303794;28;20084;-87
2022/06/01 03:37:57;;;;;;;3.63;1.73;;;9.80;99.90;;;;;;10301083;28;20122;-87
2022/06/01 03:43:00;;;;;;;5.75;1.60;;;9.70;99.90;;;;;;10293686;28;20081;-87
2022/06/01 03:48:03;;;;;;;4.25;1.17;;;9.70;99.90;;;;;;10278062;28;20050;-87
2022/06/01 03:53:05;;;;;;;2.20;0.98;;;9.60;99.90;;;;;;10294490;28;20054;-87
2022/06/01 03:58:12;;;;;;;3.42;1.20;;;9.80;99.90;;;;;;10291267;28;20114;-87
2022/06/01 04:03:15;;;;;;;2.65;1.67;;;9.90;99.90;;;;;;10277108;28;20046;-87
2022/06/01 04:08:17;;;;;;;2.17;1.15;;;9.90;99.90;;;;;;10305203;28;20066;-87
2022/06/01 04:13:24;;;;;;;5.43;1.67;;;9.90;99.90;;;;;;10294338;28;20115;-87
2022/06/01 04:18:26;;;;;;;2.05;1.27;;;10.10;99.90;;;;;;10297339;28;20408;-87
2022/06/01 04:23:28;;;;;;;2.65;1.50;;;10.10;99.90;;;;;;10278780;28;20054;-87
2022/06/01 04:28:30;;;;;;;3.97;1.63;;;10.10;99.90;;;;;;10292278;28;20041;-87
2022/06/01 04:33:32;;;;;;;2.75;1.73;;;10.20;99.90;;;;;;10323485;28;20064;-87
2022/06/01 04:38:33;;;;;;;2.75;1.50;;;10.30;99.90;;;;;;10314328;28;20049;-87
2022/06/01 04:43:35;;;;;;;4.25;0.93;;;10.50;99.90;;;;;;10295561;28;20046;-87
2022/06/01 04:48:37;;;;;;;4.57;1.40;;;10.70;99.90;;;;;;10287060;28;20123;-86
2022/06/01 04:53:43;;;;;;;2.55;1.17;;;10.80;99.90;;;;;;10289227;28;20105;-86
2022/06/01 04:58:45;;;;;;;4.97;1.17;;;11.00;99.90;;;;;;10303615;28;20055;-86
2022/06/01 05:03:48;;;;;;;3.47;1.00;;;11.10;99.90;;;;;;10281384;28;20481;-86
2022/06/01 05:08:49;;;;;;;2.80;1.00;;;11.20;99.90;;;;;;10295338;28;20057;-86
2022/06/01 05:13:51;;;;;;;3.47;1.00;;;11.40;99.90;;;;;;10271748;28;20048;-86
2022/06/01 05:18:53;;;;;;;1.00;0.80;;;11.50;99.90;;;;;;10287102;28;20054;-87
2022/06/01 05:23:55;;;;;;;2.47;1.15;;;11.70;99.90;;;;;;10303829;28;20042;-87
2022/06/01 05:28:57;;;;;;;2.25;0.80;;;11.90;99.90;;;;;;10296060;28;20113;-87
2022/06/01 05:33:59;;;;;;;1.00;0.80;;;11.80;99.90;;;;;;10287817;28;20362;-86
2022/06/01 05:39:01;;;;;;;3.88;0.90;;;12.00;99.90;;;;;;10277693;28;20057;-87
2022/06/01 05:44:03;;;;;;;1.40;0.88;;;12.20;99.90;;;;;;10283780;28;20050;-87
2022/06/01 05:49:05;;;;;;;2.17;1.30;;;12.40;99.90;;;;;;10294481;28;20061;-87
2022/06/01 05:54:07;;;;;;;2.05;1.25;;;12.60;99.90;;;;;;10294921;28;20058;-87
2022/06/01 05:59:09;;;;;;;2.95;0.98;;;12.80;99.90;;;;;;10300919;28;20417;-87
2022/06/01 06:04:10;;;;;;;6.38;1.40;;;12.80;99.90;;;;;;10271182;28;20051;-87
2022/06/01 06:09:12;;;;;;;2.00;1.10;;;13.00;99.90;;;;;;10274154;28;20057;-88
2022/06/01 06:14:14;;;;;;;1.77;0.93;;;13.10;99.90;;;;;;10294822;28;20110;-88
2022/06/01 06:19:18;;;;;;;1.77;0.88;;;13.20;99.90;;;;;;10304022;28;20514;-88
2022/06/01 06:24:22;;;;;;;1.88;1.02;;;13.20;99.90;;;;;;10286437;28;20049;-88
2022/06/01 06:29:23;;;;;;;1.45;0.90;;;13.40;99.90;;;;;;10281182;28;20062;-88
2022/06/01 06:34:25;;;;;;;1.60;0.95;;;13.50;99.90;;;;;;10290908;28;20062;-88
2022/06/01 06:39:27;;;;;;;2.20;0.70;;;13.70;99.90;;;;;;10308096;28;20054;-88
2022/06/01 06:44:29;;;;;;;1.65;0.80;;;13.80;99.90;;;;;;10280949;28;20057;-88
2022/06/01 06:49:32;;;;;;;4.35;1.10;;;13.90;99.90;;;;;;10293974;28;20072;-87
2022/06/01 06:54:34;;;;;;;2.90;0.77;;;13.90;99.90;;;;;;10305743;28;20047;-88
2022/06/01 06:59:36;;;;;;;1.98;0.75;;;14.10;99.90;;;;;;10286289;28;20051;-88
2022/06/01 07:04:38;;;;;;;2.63;0.70;;;14.30;99.90;;;;;;10304468;28;20052;-88
2022/06/01 07:09:41;;;;;;;5.50;0.90;;;14.60;99.90;;;;;;10288987;28;20042;-89
2022/06/01 07:14:43;;;;;;;2.00;0.80;;;14.70;99.70;;;;;;10297556;28;20050;-88
2022/06/01 07:19:44;;;;;;;2.22;1.13;;;14.90;99.90;;;;;;10303906;28;20046;-89
2022/06/01 07:24:46;;;;;;;1.55;0.65;;;15.00;97.70;;;;;;10244507;28;20424;-89
2022/06/01 07:29:48;;;;;;;1.38;0.77;;;15.20;98.10;;;;;;10284233;28;20052;-89
2022/06/01 07:34:50;;;;;;;3.03;0.60;;;15.40;95.60;;;;;;10289001;28;20576;-89
2022/06/01 07:45:12;;;;;;;3.92;0.80;;;15.60;93.90;;;;;;10309406;28;20051;-89
2022/06/01 07:50:14;;;;;;;1.55;0.70;;;15.90;93.70;;;;;;10289171;28;20141;-89
2022/06/01 07:55:36;;;;;;;6.55;0.60;;;16.00;92.70;;;;;;10277573;28;20046;-89
2022/06/01 08:00:38;;;;;;;2.33;0.65;;;16.10;93.50;;;;;;10279758;28;20041;-89
2022/06/01 08:05:41;;;;;;;1.10;0.38;;;16.30;90.50;;;;;;10310736;28;20046;-89
2022/06/01 08:10:43;;;;;;;2.08;0.40;;;16.30;89.80;;;;;;10277957;28;20146;-89
2022/06/01 08:15:47;;;;;;;0.73;0.40;;;16.60;85.30;;;;;;10287195;28;20062;-89
2022/06/01 08:20:50;;;;;;;1.88;0.50;;;16.80;83.20;;;;;;10290423;28;20053;-89
2022/06/01 08:25:54;;;;;;;0.73;0.30;;;17.00;83.30;;;;;;10293259;28;20114;-89
2022/06/01 08:30:56;;;;;;;0.32;0.20;;;17.10;79.00;;;;;;10312503;28;20046;-89
2022/06/01 08:35:57;;;;;;;0.85;0.60;;;17.40;74.70;;;;;;10292078;28;20105;-89
2022/06/01 08:41:06;;;;;;;4.07;0.50;;;17.60;73.90;;;;;;10276718;28;20042;-89
2022/06/01 08:46:11;;;;;;;0.63;0.25;;;17.80;76.10;;;;;;10284796;28;20054;-89
2022/06/01 08:51:16;;;;;;;0.63;0.10;;;17.80;75.10;;;;;;10277975;28;20052;-88
2022/06/01 08:56:26;;;;;;;0.10;0.10;;;17.90;66.10;;;;;;10300291;28;20357;-88
2022/06/01 09:01:52;;;;;;;2.10;0.15;;;18.20;66.00;;;;;;10274409;28;21751;-88
2022/06/01 09:07:49;;;;;;;0.10;0.10;;;18.20;68.60;;;;;;10294924;28;20042;-89
2022/06/01 09:13:10;;;;;;;0.20;0.10;;;18.60;64.20;;;;;;10239838;28;20137;-88
2022/06/01 09:18:12;;;;;;;0.70;0.15;;;18.90;63.40;;;;;;10284718;28;20061;-88
2022/06/01 09:23:17;;;;;;;0.55;0.17;;;18.80;63.30;;;;;;10291953;28;20053;-88
2022/06/01 09:28:20;;;;;;;0.28;0.10;;;18.80;62.70;;;;;;10287379;28;20050;-89
2022/06/01 09:33:37;;;;;;;0.47;0.10;;;18.90;62.90;;;;;;10292041;28;20042;-88
2022/06/01 09:38:47;;;;;;;0.80;0.10;;;19.10;62.30;;;;;;10310924;28;20046;-89
2022/06/01 09:43:55;;;;;;;0.52;0.20;;;19.40;62.00;;;;;;10268286;28;20150;-88
2022/06/01 09:48:57;;;;;;;0.50;0.32;;;19.30;62.60;;;;;;10270575;28;20125;-89
2022/06/01 09:54:11;;;;;;;0.20;0.10;;;19.20;61.80;;;;;;10294881;28;20069;-89
2022/06/01 10:10:26;;;;;;;1.05;0.10;;;19.50;62.10;;;;;;10290881;28;20069;-89
2022/06/01 10:15:35;;;;;;;0.30;0.10;;;19.40;60.70;;;;;;10298482;28;20069;-89
2022/06/01 10:20:47;;;;;;;2.20;0.20;;;19.40;60.60;;;;;;10290249;28;20093;-89
2022/06/01 10:26:23;;;;;;;0.75;0.10;;;19.50;59.90;;;;;;10283386;28;20050;-90
2022/06/01 10:31:38;;;;;;;0.30;0.20;;;19.80;58.10;;;;;;10276156;28;20050;-89
2022/06/01 10:37:07;;;;;;;0.10;0.10;;;19.50;56.90;;;;;;10303707;28;20055;-89
2022/06/01 10:42:19;;;;;;;2.60;0.10;;;19.50;57.50;;;;;;10281810;28;20046;-89
2022/06/01 10:47:54;;;;;;;1.85;0.10;;;20.20;56.50;;;;;;10274181;28;20047;-89
2022/06/01 10:53:23;;;;;;;0.77;0.10;;;20.30;55.90;;;;;;10291382;28;20060;-89
2022/06/01 10:58:26;;;;;;;0.90;0.15;;;21.00;53.30;;;;;;10281867;28;21731;-88
2022/06/01 11:03:37;;;;;;;1.40;0.30;;;20.90;52.70;;;;;;10280712;28;20050;-90
2022/06/01 11:08:46;;;;;;;0.85;0.10;;;21.00;51.70;;;;;;10317065;28;20026;-90
2022/06/01 11:14:12;;;;;;;6.13;0.63;;;20.90;54.10;;;;;;10279196;28;20137;-89
2022/06/01 11:20:02;;;;;;;0.05;0.05;;;20.70;53.80;;;;;;10295301;28;20043;-90
2022/06/01 11:25:20;;;;;;;2.20;0.10;;;21.20;52.20;;;;;;10289682;28;20055;-90
2022/06/01 11:30:26;;;;;;;0.20;0.10;;;20.70;51.50;;;;;;10296397;28;20061;-90
2022/06/01 11:35:49;;;;;;;1.48;0.10;;;20.70;51.80;;;;;;10278494;28;20069;-90
2022/06/01 11:41:12;;;;;;;1.38;0.10;;;21.10;50.70;;;;;;10307071;28;20096;-90
2022/06/01 11:46:22;;;;;;;0.00;0.00;;;21.70;46.80;;;;;;10307770;28;20054;-90
2022/06/01 11:51:36;;;;;;;0.22;0.00;;;21.60;46.90;;;;;;10289605;28;20101;-90
2022/06/01 11:57:03;;;;;;;0.57;0.10;;;21.60;45.30;;;;;;10261471;28;20449;-90
2022/06/01 12:02:50;;;;;;;1.75;0.10;;;21.90;45.60;;;;;;10308120;28;20047;-89
2022/06/01 12:08:01;;;;;;;0.68;0.00;;;21.70;46.60;;;;;;10288529;28;20158;-90
2022/06/01 12:13:30;;;;;;;0.00;0.00;;;21.00;47.20;;;;;;10279923;28;20201;-89
2022/06/01 12:18:33;;;;;;;0.20;0.10;;;21.70;47.20;;;;;;10282275;28;20045;-89
2022/06/01 12:29:29;;;;;;;0.50;0.00;;;22.30;46.80;;;;;;10280147;28;20544;-88
2022/06/01 12:34:38;;;;;;;1.23;0.00;;;22.00;45.90;;;;;;10288112;28;20101;-89
2022/06/01 12:39:40;;;;;;;0.20;0.10;;;22.50;45.20;;;;;;10305969;28;20053;-90
2022/06/01 12:44:45;;;;;;;2.25;0.00;;;22.50;44.40;;;;;;10310821;28;20412;-89
2022/06/01 12:49:48;;;;;;;0.47;0.00;;;22.20;45.80;;;;;;10287925;28;20065;-88
2022/06/01 12:54:59;;;;;;;0.77;0.08;;;22.30;44.90;;;;;;10299350;28;20087;-89
2022/06/01 13:00:04;;;;;;;0.00;0.00;;;22.50;44.30;;;;;;10301014;28;20046;-89
2022/06/01 13:05:09;;;;;;;0.00;0.00;;;22.70;43.70;;;;;;10293777;28;20582;-89
2022/06/01 13:10:18;;;;;;;0.55;0.30;;;22.90;42.80;;;;;;10253456;28;20050;-88
2022/06/01 13:15:26;;;;;;;0.75;0.10;;;23.00;41.70;;;;;;10299777;28;20050;-89
2022/06/01 13:20:37;;;;;;;0.32;0.03;;;23.30;42.70;;;;;;10284981;28;20061;-88
2022/06/01 13:25:39;;;;;;;0.47;0.00;;;23.30;41.80;;;;;;10303202;28;20078;-89
2022/06/01 13:30:41;;;;;;;0.55;0.03;;;22.40;42.70;;;;;;10286273;28;20043;-89
2022/06/01 13:35:44;;;;;;;0.10;0.10;;;22.60;42.40;;;;;;10300460;28;20053;-89
2022/06/01 13:41:01;;;;;;;0.45;0.03;;;22.10;42.20;;;;;;10291658;28;20125;-89
2022/06/01 13:46:06;;;;;;;0.10;0.00;;;23.10;42.60;;;;;;10278863;28;20038;-89
2022/06/01 13:51:34;;;;;;;0.05;0.03;;;22.60;42.20;;;;;;10266368;28;20189;-90
2022/06/01 13:56:44;;;;;;;0.00;0.00;;;23.30;41.30;;;;;;10299434;28;20054;-89
2022/06/01 14:01:53;;;;;;;0.30;0.13;;;22.80;42.50;;;;;;10264808;28;20035;-90
2022/06/01 14:07:05;;;;;;;0.00;0.00;;;22.80;42.00;;;;;;10300163;28;20202;-89
2022/06/01 14:12:08;;;;;;;1.10;0.00;;;23.20;40.80;;;;;;10286952;28;20100;-89
2022/06/01 14:17:13;;;;;;;0.75;0.00;;;23.40;41.10;;;;;;10294045;28;20045;-89
2022/06/01 14:22:16;;;;;;;0.10;0.10;;;23.30;40.10;;;;;;10252452;28;20054;-89
2022/06/01 14:32:44;;;;;;;0.20;0.00;;;22.80;42.10;;;;;;10300835;28;20066;-89
2022/06/01 14:37:47;;;;;;;0.38;0.00;;;22.90;42.90;;;;;;10287077;28;20059;-89
2022/06/01 14:42:49;;;;;;;0.22;0.00;;;23.60;41.90;;;;;;10286334;28;20101;-89
2022/06/01 14:47:51;;;;;;;0.03;0.00;;;22.70;41.90;;;;;;10286894;28;20051;-89
2022/06/01 14:52:53;;;;;;;0.10;0.10;;;22.20;42.50;;;;;;10275617;28;20065;-89
2022/06/01 14:57:55;;;;;;;0.00;0.00;;;22.50;42.40;;;;;;10254310;28;20527;-89
2022/06/01 15:02:57;;;;;;;0.70;0.00;;;22.50;42.40;;;;;;10278687;28;20500;-89
2022/06/01 15:07:59;;;;;;;0.73;0.00;;;22.90;42.70;;;;;;10282573;28;20463;-89
2022/06/01 15:13:01;;;;;;;0.10;0.00;;;22.50;43.40;;;;;;10271661;28;20094;-89
2022/06/01 15:18:03;;;;;;;0.15;0.00;;;22.20;43.10;;;;;;10282672;28;20044;-89
2022/06/01 15:23:05;;;;;;;1.08;0.10;;;22.00;43.10;;;;;;10285164;28;20049;-89
2022/06/01 15:28:07;;;;;;;0.13;0.00;;;22.30;43.80;;;;;;10263949;28;20140;-89
2022/06/01 15:43:56;;;;;;;1.23;0.10;;;22.00;47.80;;;;;;10304091;28;20043;-89
2022/06/01 15:49:01;;;;;;;0.50;0.35;;;22.50;47.90;;;;;;10301956;28;20055;-89
2022/06/01 15:54:03;;;;;;;0.35;0.10;;;22.60;47.10;;;;;;10282036;28;20070;-89
2022/06/01 15:59:05;;;;;;;1.55;0.10;;;22.90;47.80;;;;;;10281081;28;20397;-88
2022/06/01 16:04:07;;;;;;;0.00;0.00;;;23.20;46.70;;;;;;10269387;28;20060;-89
2022/06/01 16:09:30;;;;;;;0.70;0.13;;;23.40;45.20;;;;;;10281907;28;20748;-89
2022/06/01 16:14:32;;;;;;;0.00;0.00;;;24.00;44.20;;;;;;10289008;28;20054;-89
2022/06/01 16:19:36;;;;;;;0.57;0.28;;;23.50;43.60;;;;;;10274308;28;20097;-89
2022/06/01 16:24:38;;;;;;;0.10;0.10;;;22.80;45.40;;;;;;10253765;28;20037;-89
2022/06/01 16:29:41;;;;;;;0.10;0.00;;;23.60;45.60;;;;;;10257633;28;20070;-90
2022/06/01 16:34:44;;;;;;;0.10;0.00;;;24.40;45.40;;;;;;10282135;28;20034;-89
2022/06/01 16:39:46;;;;;;;0.20;0.00;;;23.80;45.20;;;;;;10277312;28;20051;-88
2022/06/01 16:44:50;;;;;;;0.05;0.05;;;23.90;45.30;;;;;;10269775;28;20116;-89
2022/06/01 16:49:52;;;;;;;0.25;0.10;;;24.60;44.90;;;;;;10295245;28;20050;-89
2022/06/01 16:54:54;;;;;;;2.28;0.22;;;24.40;44.60;;;;;;10291613;28;20054;-90
2022/06/01 16:59:57;;;;;;;2.40;0.10;;;24.70;45.30;;;;;;10271577;28;20148;-89
2022/06/01 17:04:59;;;;;;;0.60;0.10;;;25.00;44.70;;;;;;10258494;28;20133;-89
2022/06/01 17:10:03;;;;;;;0.10;0.10;;;25.10;44.40;;;;;;10287805;28;20050;-90
2022/06/01 17:15:07;;;;;;;2.75;0.10;;;25.00;43.40;;;;;;10306873;28;20058;-90
2022/06/01 17:20:16;;;;;;;0.82;0.10;;;24.50;44.20;;;;;;10281763;28;20134;-90
2022/06/01 17:25:19;;;;;;;0.30;0.10;;;24.80;44.80;;;;;;10286796;28;20104;-91
2022/06/01 17:30:21;;;;;;;1.55;0.13;;;23.60;45.80;;;;;;10289570;28;20054;-90
2022/06/01 17:35:27;;;;;;;1.02;0.10;;;23.10;47.30;;;;;;10287151;28;20537;-90
2022/06/01 17:40:30;;;;;;;0.38;0.10;;;22.20;48.70;;;;;;10295714;28;20058;-90
2022/06/01 17:45:36;;;;;;;0.20;0.10;;;21.50;50.60;;;;;;10288009;28;20129;-90
2022/06/01 17:50:38;;;;;;;1.40;0.10;;;21.00;52.00;;;;;;10314416;28;20042;-89
2022/06/01 17:55:40;;;;;;;0.38;0.10;;;20.40;53.70;;;;;;10274775;28;20293;-90
2022/06/01 18:00:45;;;;;;;0.75;0.10;;;20.10;54.60;;;;;;10293824;28;20477;-89
2022/06/01 18:05:47;;;;;;;1.17;0.10;;;20.00;55.20;;;;;;10286126;28;20077;-89
2022/06/01 18:10:49;;;;;;;0.50;0.20;;;19.60;55.70;;;;;;10294757;28;20138;-89
2022/06/01 18:15:51;;;;;;;3.65;0.20;;;19.40;56.60;;;;;;10278284;28;20046;-89
2022/06/01 18:20:54;;;;;;;0.35;0.20;;;19.20;57.40;;;;;;10292170;28;20765;-89
2022/06/01 18:25:58;;;;;;;1.58;0.10;;;19.10;57.90;;;;;;10271317;28;20050;-90
2022/06/01 18:31:18;;;;;;;0.15;0.10;;;18.60;58.50;;;;;;10294317;28;20085;-89
2022/06/01 18:36:22;;;;;;;0.68;0.10;;;18.40;58.90;;;;;;10288177;28;20357;-89
2022/06/01 18:41:25;;;;;;;0.88;0.20;;;18.30;59.30;;;;;;10284941;28;20121;-88
2022/06/01 18:46:29;;;;;;;4.43;0.20;;;18.20;59.70;;;;;;10297042;28;20084;-88
2022/06/01 18:51:34;;;;;;;0.40;0.20;;;18.10;60.10;;;;;;10293094;28;20517;-88
2022/06/01 18:56:47;;;;;;;0.35;0.13;;;18.00;60.70;;;;;;10281856;28;20576;-88
2022/06/01 19:01:49;;;;;;;3.60;0.57;;;18.00;61.00;;;;;;10314698;28;20464;-89
2022/06/01 19:06:54;;;;;;;2.70;0.20;;;17.90;61.20;;;;;;10296751;28;20070;-88
2022/06/01 19:11:56;;;;;;;1.75;0.52;;;17.90;61.60;;;;;;10264465;28;20038;-88
2022/06/01 19:16:59;;;;;;;0.88;0.20;;;17.90;61.90;;;;;;10300943;28;20129;-88
2022/06/01 19:22:05;;;;;;;1.23;0.20;;;17.80;61.70;;;;;;10294278;28;20048;-88
2022/06/01 19:27:19;;;;;;;2.80;0.20;;;17.80;62.70;;;;;;10293790;28;20043;-88
2022/06/01 19:32:41;;;;;;;1.95;0.20;;;17.70;62.60;;;;;;10289783;28;20038;-89
2022/06/01 19:48:29;;;;;;;0.95;0.20;;;17.40;64.20;;;;;;10297123;28;20050;-87
2022/06/01 19:53:31;;;;;;;0.47;0.20;;;17.40;64.80;;;;;;10309029;28;20534;-87
2022/06/01 19:58:34;;;;;;;0.73;0.30;;;17.40;65.70;;;;;;10287639;28;20074;-87
2022/06/01 20:03:36;;;;;;;2.03;0.30;;;17.30;66.90;;;;;;10296089;28;20050;-88
2022/06/01 20:08:38;;;;;;;0.90;0.20;;;17.20;67.70;;;;;;10263296;28;20059;-89
2022/06/01 20:13:39;;;;;;;3.97;0.20;;;17.10;68.20;;;;;;10302905;28;20051;-88
2022/06/01 20:18:41;;;;;;;2.55;0.40;;;17.00;68.80;;;;;;10292452;28;20057;-89
2022/06/01 20:23:43;;;;;;;4.28;0.60;;;17.00;69.40;;;;;;10293234;28;20053;-88
2022/06/01 20:28:50;;;;;;;0.85;0.20;;;16.80;70.00;;;;;;10253476;28;20418;-88
2022/06/01 20:33:52;;;;;;;0.80;0.30;;;16.70;70.20;;;;;;10262311;28;20450;-87
2022/06/01 20:38:55;;;;;;;1.63;0.40;;;16.60;70.90;;;;;;10271459;28;20081;-88
2022/06/01 20:43:58;;;;;;;0.32;0.22;;;16.40;69.70;;;;;;10249488;28;20798;-87
2022/06/01 20:49:07;;;;;;;0.95;0.38;;;16.30;70.50;;;;;;10252745;28;20047;-88
2022/06/01 20:54:10;;;;;;;0.47;0.30;;;16.30;71.30;;;;;;10245315;28;20560;-87
2022/06/01 20:59:13;;;;;;;3.58;0.30;;;16.10;70.40;;;;;;10256653;28;20047;-89
2022/06/01 21:04:16;;;;;;;0.40;0.30;;;16.10;70.00;;;;;;10259901;28;20130;-89
2022/06/01 21:09:18;;;;;;;1.00;0.35;;;16.10;70.80;;;;;;10273584;28;20571;-87
2022/06/01 21:14:21;;;;;;;3.72;0.40;;;16.00;71.40;;;;;;10267788;28;20043;-89
2022/06/01 21:19:23;;;;;;;1.77;0.30;;;16.00;72.00;;;;;;10271363;28;20126;-89
2022/06/01 21:24:25;;;;;;;1.08;0.30;;;15.90;72.70;;;;;;10264541;28;20039;-87
2022/06/01 21:29:26;;;;;;;1.70;0.40;;;15.90;73.90;;;;;;10276100;28;20043;-86
2022/06/01 21:34:29;;;;;;;1.60;0.40;;;15.90;74.70;;;;;;10278533;28;20038;-87
2022/06/01 21:39:31;;;;;;;1.00;0.30;;;15.70;73.10;;;;;;10279273;28;20058;-87
2022/06/01 21:44:33;;;;;;;2.35;0.30;;;15.70;72.40;;;;;;10274708;28;20051;-87
2022/06/01 21:49:36;;;;;;;2.25;0.30;;;15.70;72.90;;;;;;10260012;28;20385;-88
2022/06/01 21:54:39;;;;;;;2.65;0.35;;;15.50;72.00;;;;;;10277644;28;20568;-86
2022/06/01 21:59:41;;;;;;;0.82;0.30;;;15.50;72.50;;;;;;10267482;28;20059;-87
2022/06/01 22:04:43;;;;;;;1.60;0.30;;;15.50;74.20;;;;;;10270453;28;20093;-87
2022/06/01 22:09:45;;;;;;;0.70;0.30;;;15.40;72.50;;;;;;10266515;28;20485;-86
2022/06/01 22:14:47;;;;;;;4.60;0.30;;;15.10;72.80;;;;;;10272766;28;20119;-87
2022/06/01 22:19:49;;;;;;;1.42;0.40;;;15.20;74.00;;;;;;10259704;28;20154;-86
2022/06/01 22:24:51;;;;;;;0.85;0.40;;;15.10;74.80;;;;;;10272149;28;20109;-87
2022/06/01 22:29:53;;;;;;;0.40;0.30;;;15.00;75.20;;;;;;10271009;28;20057;-87
2022/06/01 22:40:20;;;;;;;0.82;0.40;;;14.80;75.20;;;;;;10273093;28;20058;-87
2022/06/01 22:45:24;;;;;;;3.35;0.40;;;14.70;75.00;;;;;;10266222;28;20126;-86
2022/06/01 22:50:55;;;;;;;1.02;0.40;;;14.60;75.10;;;;;;10259997;28;20065;-86
2022/06/01 22:55:57;;;;;;;0.43;0.28;;;14.50;75.70;;;;;;10260004;28;20051;-86
2022/06/01 23:00:59;;;;;;;0.65;0.40;;;14.40;76.00;;;;;;10265698;28;20549;-87
2022/06/01 23:06:01;;;;;;;1.20;0.55;;;14.40;76.40;;;;;;10276373;28;20057;-86
2022/06/01 23:11:03;;;;;;;0.85;0.40;;;14.30;76.80;;;;;;10266280;28;20130;-86
2022/06/01 23:16:06;;;;;;;1.38;0.75;;;14.20;77.30;;;;;;10244192;28;20055;-86
2022/06/01 23:21:11;;;;;;;2.10;0.52;;;14.20;78.20;;;;;;10238008;28;20081;-87
2022/06/01 23:26:15;;;;;;;1.15;0.38;;;14.10;78.80;;;;;;10271420;28;20064;-86
2022/06/01 23:31:47;;;;;;;0.50;0.40;;;14.00;79.80;;;;;;10282541;28;20077;-86
2022/06/01 23:37:26;;;;;;;0.90;0.60;;;13.90;79.50;;;;;;10288414;28;20046;-87
2022/06/01 23:43:01;;;;;;;0.63;0.45;;;13.80;80.40;;;;;;10274911;28;20089;-87
2022/06/01 23:54:02;;;;;;;1.85;0.70;;;13.50;82.40;;;;;;10262474;28;20452;-86
2022/06/01 23:59:47;;;;;;;2.63;0.50;;;13.40;83.50;;;;;;10290211;28;20047;-86
